Terminal Aerodrome Forecast
Issued by NWS Boston, MA

Home | Current Version | Previous Version | Text Only | Print | Product List | Glossary On
Versions: 1 2 3 4 5 6 7 8 9 10 11 12 13 14 15 16 17 18 19 20
000
FTUS41 KBOX 302320
TAFPVD
TAF
KPVD 302320Z 0100/0124 18008KT P6SM FEW050
     FM010600 VRB03KT P6SM BKN050
     FM011400 14005KT P6SM VCSH OVC050
     FM011900 14009KT P6SM -RA OVC070
     FM012300 10008KT 5SM -RA OVC050=

USA.gov is the U.S. government's official web portal to all federal, state and local government web resources and services.